Time;durP1;ratioP1;P1;durP2;ratioP2;P2;SDS_P1;SDS_P2;PMS_P1;PMS_P2;Temp;Humidity;BMP_temperature;BMP_pressure;BME280_temperature;BME280_humidity;BME280_pressure;Samples;Min_cycle;Max_cycle;Signal;HPM_P1;HPM_P2
2022/07/17 00:02:02;;;;;;;3.13;1.40;;;;;;;10.94;79.92;102008.34;6022312;28;20027;-66
2022/07/17 00:04:58;;;;;;;7.07;2.13;;;;;;;11.09;80.22;102012.47;6014629;28;20135;-65
2022/07/17 00:07:53;;;;;;;4.10;1.20;;;;;;;10.84;80.08;102010.03;6022489;28;20125;-66
2022/07/17 00:10:48;;;;;;;9.03;2.57;;;;;;;10.69;82.13;102012.84;6023706;28;20031;-64
2022/07/17 00:13:44;;;;;;;5.17;1.67;;;;;;;11.17;82.42;102002.16;6019266;28;20078;-66
2022/07/17 00:16:39;;;;;;;5.80;1.90;;;;;;;11.54;81.19;101995.66;6020832;28;20088;-66
2022/07/17 00:19:34;;;;;;;5.43;1.67;;;;;;;11.43;78.73;102003.63;6017798;28;20050;-64
2022/07/17 00:22:30;;;;;;;4.23;1.47;;;;;;;10.92;79.75;101995.22;6025134;28;20030;-66
2022/07/17 00:25:26;;;;;;;2.83;1.40;;;;;;;10.94;80.80;101989.78;6023223;28;20088;-65
2022/07/17 00:28:21;;;;;;;4.80;1.40;;;;;;;10.79;80.50;102006.88;6030154;28;20038;-66
2022/07/17 00:31:16;;;;;;;6.43;1.30;;;;;;;10.43;81.73;102000.69;6024374;28;20044;-65
2022/07/17 00:34:12;;;;;;;5.75;1.35;;;;;;;10.30;82.35;101999.06;6029065;28;20030;-66
2022/07/17 00:37:07;;;;;;;7.07;1.80;;;;;;;10.31;82.34;102001.59;6022529;28;20364;-66
2022/07/17 00:40:03;;;;;;;4.15;1.38;;;;;;;10.44;82.31;102007.69;6014917;28;20324;-66
2022/07/17 00:42:58;;;;;;;5.35;1.70;;;;;;;10.64;82.51;101983.19;6027777;28;20077;-66
2022/07/17 00:46:01;;;;;;;5.00;1.67;;;;;;;10.51;82.55;101997.47;6016630;28;20057;-65
2022/07/17 00:48:56;;;;;;;5.63;1.80;;;;;;;10.35;81.70;101989.81;6019957;28;20368;-66
2022/07/17 00:51:51;;;;;;;5.80;1.60;;;;;;;10.29;82.45;101987.63;6019832;28;20379;-66
2022/07/17 00:54:47;;;;;;;6.80;1.50;;;;;;;10.12;82.50;102002.09;6027528;28;20038;-66
2022/07/17 00:57:45;;;;;;;3.75;1.30;;;;;;;10.02;82.47;102000.19;6020811;28;20105;-65
2022/07/17 01:00:41;;;;;;;14.82;1.85;;;;;;;9.74;83.49;102006.63;6028356;28;20037;-64
2022/07/17 01:03:36;;;;;;;6.77;1.60;;;;;;;9.79;85.74;102006.28;6027405;28;20504;-65
2022/07/17 01:06:32;;;;;;;4.38;1.55;;;;;;;9.88;84.95;101987.09;6028824;28;20031;-66
2022/07/17 01:09:28;;;;;;;4.93;1.57;;;;;;;9.98;84.56;101996.91;6021838;28;20053;-66
2022/07/17 01:12:24;;;;;;;8.15;1.88;;;;;;;9.94;83.62;101997.25;6020226;28;20109;-67
2022/07/17 01:15:19;;;;;;;6.75;1.50;;;;;;;9.81;84.19;101986.66;6029247;28;20053;-65
2022/07/17 01:18:15;;;;;;;7.73;1.50;;;;;;;9.73;84.89;101993.50;6017299;28;20049;-66
2022/07/17 01:21:11;;;;;;;8.57;1.88;;;;;;;9.35;85.48;101983.78;6027953;28;20482;-65
2022/07/17 01:24:06;;;;;;;6.30;1.93;;;;;;;9.31;85.90;101992.91;6017518;28;20046;-65
2022/07/17 01:27:01;;;;;;;6.10;1.77;;;;;;;9.22;86.57;101988.22;6021899;28;20293;-65
2022/07/17 01:29:57;;;;;;;4.00;1.63;;;;;;;9.16;87.05;101991.28;6028011;28;20053;-66
2022/07/17 01:32:52;;;;;;;4.93;1.60;;;;;;;9.15;87.60;102002.84;6027152;28;20060;-66
2022/07/17 01:35:48;;;;;;;3.90;2.00;;;;;;;9.10;88.62;101999.69;6027430;28;20066;-64
2022/07/17 01:38:43;;;;;;;2.63;1.33;;;;;;;9.16;88.91;101991.28;6019064;28;20046;-66
2022/07/17 01:41:39;;;;;;;5.17;1.53;;;;;;;8.99;88.10;101996.91;6024108;28;20031;-66
2022/07/17 01:44:35;;;;;;;5.53;1.73;;;;;;;8.93;88.78;101998.19;6015570;28;20038;-66
2022/07/17 01:47:30;;;;;;;5.63;1.98;;;;;;;8.93;89.13;102003.47;6027622;28;20045;-66
2022/07/17 01:50:25;;;;;;;9.97;2.27;;;;;;;8.91;89.34;102004.53;6028002;28;20332;-65
2022/07/17 01:53:21;;;;;;;8.40;1.90;;;;;;;8.76;89.97;102001.09;6016898;28;20418;-64
2022/07/17 01:56:16;;;;;;;5.20;1.50;;;;;;;8.60;90.38;101989.00;6022156;28;20501;-65
2022/07/17 01:59:11;;;;;;;4.73;1.80;;;;;;;8.64;90.96;102003.72;6023299;28;20046;-66
2022/07/17 02:02:08;;;;;;;8.03;1.93;;;;;;;8.56;91.55;101998.09;6024398;28;20026;-65
2022/07/17 02:05:04;;;;;;;5.90;1.58;;;;;;;8.65;91.73;102000.09;6027954;28;20125;-65
2022/07/17 02:07:59;;;;;;;7.53;1.95;;;;;;;9.12;92.02;101997.75;6025240;28;20030;-65
2022/07/17 02:10:54;;;;;;;6.83;2.17;;;;;;;9.30;90.07;102003.56;6025128;28;20121;-65
2022/07/17 02:13:50;;;;;;;8.00;2.17;;;;;;;9.14;89.79;102001.16;6028083;28;20022;-66
2022/07/17 02:16:45;;;;;;;6.00;1.60;;;;;;;9.25;89.71;102006.53;6022954;28;20042;-65
2022/07/17 02:19:40;;;;;;;4.83;1.57;;;;;;;9.34;89.16;101997.97;6028059;28;20466;-67
2022/07/17 02:22:36;;;;;;;7.30;1.63;;;;;;;9.29;88.44;102020.44;6022847;28;20038;-65
2022/07/17 02:25:31;;;;;;;7.68;1.90;;;;;;;9.15;88.54;102002.84;6021515;28;20042;-64
2022/07/17 02:28:27;;;;;;;9.50;2.63;;;;;;;9.24;89.09;102017.25;6027139;28;20117;-66
2022/07/17 02:31:22;;;;;;;5.03;1.50;;;;;;;9.30;89.23;102017.66;6025026;28;20034;-65
2022/07/17 02:34:17;;;;;;;5.10;1.70;;;;;;;9.14;88.88;102022.31;6018460;28;20035;-66
2022/07/17 02:37:13;;;;;;;6.83;2.10;;;;;;;9.21;89.46;102007.72;6019959;28;20105;-66
2022/07/17 02:40:08;;;;;;;15.38;2.55;;;;;;;9.18;88.63;102018.53;6026987;28;20277;-66
2022/07/17 02:43:04;;;;;;;3.80;1.65;;;;;;;9.31;88.65;102006.13;6014227;28;20052;-65
2022/07/17 02:46:00;;;;;;;3.83;1.60;;;;;;;9.70;88.14;102020.19;6024740;28;20042;-65
2022/07/17 02:48:55;;;;;;;2.88;1.50;;;;;;;9.81;87.11;102018.44;6018045;28;20042;-65
2022/07/17 02:51:51;;;;;;;3.73;1.50;;;;;;;10.06;86.32;102025.50;6023480;28;20038;-66
2022/07/17 02:54:46;;;;;;;9.40;2.03;;;;;;;10.03;85.66;102015.13;6026391;28;20058;-65
2022/07/17 02:57:42;;;;;;;5.70;1.80;;;;;;;9.85;85.28;102019.09;6017113;28;20522;-64
2022/07/17 03:00:37;;;;;;;7.85;1.92;;;;;;;10.20;85.87;102025.38;6026585;28;20023;-66
2022/07/17 03:03:32;;;;;;;6.18;1.92;;;;;;;10.36;85.70;102009.19;6024347;28;20081;-65
2022/07/17 03:06:28;;;;;;;5.80;2.10;;;;;;;10.40;84.90;102008.88;6022091;28;20113;-65
2022/07/17 03:09:23;;;;;;;6.07;2.10;;;;;;;10.40;84.58;102003.56;6026929;28;20026;-66
2022/07/17 03:12:18;;;;;;;3.70;1.83;;;;;;;10.30;83.30;102014.97;6019077;28;20045;-65
2022/07/17 03:15:14;;;;;;;5.23;1.90;;;;;;;9.77;83.93;102021.44;6019767;28;20125;-65
2022/07/17 03:18:09;;;;;;;6.95;1.60;;;;;;;9.37;85.68;102026.03;6022202;28;20059;-67
2022/07/17 03:21:05;;;;;;;3.97;1.73;;;;;;;9.28;86.76;102035.47;6018754;28;20053;-66
2022/07/17 03:24:00;;;;;;;5.63;1.80;;;;;;;9.01;87.74;102036.47;6020083;28;20057;-66
2022/07/17 03:26:57;;;;;;;7.15;1.95;;;;;;;8.93;89.33;102035.22;6023465;28;20115;-65
2022/07/17 03:29:53;;;;;;;6.82;1.92;;;;;;;8.69;89.39;102042.13;6026154;28;20026;-66
2022/07/17 03:32:49;;;;;;;4.85;2.03;;;;;;;8.55;90.18;102055.41;6034176;28;20096;-66
2022/07/17 03:35:44;;;;;;;7.45;1.77;;;;;;;8.49;91.06;102044.38;6026555;28;20385;-65
2022/07/17 03:38:41;;;;;;;4.30;1.80;;;;;;;8.62;91.52;102050.53;6014113;28;20069;-66
2022/07/17 03:41:36;;;;;;;7.68;1.70;;;;;;;8.32;91.38;102048.97;6020439;28;20023;-66
2022/07/17 03:44:31;;;;;;;3.67;2.10;;;;;;;8.35;91.91;102055.84;6021291;28;20033;-64
2022/07/17 03:47:27;;;;;;;4.33;1.90;;;;;;;8.12;92.63;102040.59;6022578;28;20053;-66
2022/07/17 03:50:22;;;;;;;8.93;1.90;;;;;;;8.28;93.35;102055.41;6023685;28;20062;-64
2022/07/17 03:53:17;;;;;;;8.40;1.70;;;;;;;8.32;92.87;102051.59;6024467;28;20046;-66
2022/07/17 03:56:13;;;;;;;10.07;2.00;;;;;;;8.33;93.10;102066.53;6022841;28;20297;-66
2022/07/17 03:59:09;;;;;;;3.92;2.03;;;;;;;8.42;92.68;102053.66;6020305;28;20041;-66
2022/07/17 04:02:04;;;;;;;3.77;1.67;;;;;;;8.47;92.95;102057.69;6022108;28;20042;-65
2022/07/17 04:04:59;;;;;;;4.13;1.43;;;;;;;8.38;93.29;102047.72;6024712;28;20038;-66
2022/07/17 04:07:55;;;;;;;4.97;1.87;;;;;;;8.40;93.80;102059.03;6025155;28;20054;-66
2022/07/17 04:10:50;;;;;;;5.43;1.93;;;;;;;8.52;93.49;102071.47;6024238;28;20069;-65
2022/07/17 04:13:46;;;;;;;5.90;1.93;;;;;;;8.46;93.83;102063.06;6017452;28;20034;-65
2022/07/17 04:16:41;;;;;;;6.70;1.83;;;;;;;8.59;93.77;102056.06;6021864;28;20294;-67
2022/07/17 04:19:36;;;;;;;4.50;1.73;;;;;;;9.04;93.32;102060.94;6025899;28;20091;-65
2022/07/17 04:22:32;;;;;;;6.03;1.77;;;;;;;9.17;92.16;102068.88;6019291;28;20521;-67
2022/07/17 04:25:27;;;;;;;4.60;1.87;;;;;;;9.59;91.61;102080.03;6024169;28;20398;-65
2022/07/17 04:28:22;;;;;;;12.77;2.20;;;;;;;10.45;89.43;102070.38;6025579;28;20429;-66
2022/07/17 04:31:18;;;;;;;6.28;1.60;;;;;;;10.90;85.51;102055.50;6010583;28;20121;-67
2022/07/17 04:34:13;;;;;;;6.43;1.97;;;;;;;11.23;82.54;102038.81;6024068;28;20092;-67
2022/07/17 04:37:08;;;;;;;7.13;1.70;;;;;;;11.73;80.70;102046.41;6019619;28;20640;-65
2022/07/17 04:40:04;;;;;;;5.67;1.30;;;;;;;11.97;79.07;102035.66;6024336;28;20033;-65
2022/07/17 04:43:00;;;;;;;3.95;1.40;;;;;;;12.21;78.30;102038.13;6007003;28;20029;-67
2022/07/17 04:45:55;;;;;;;4.07;1.50;;;;;;;12.74;75.62;102031.94;6017058;28;20027;-67
2022/07/17 04:48:50;;;;;;;5.70;1.50;;;;;;;12.75;74.73;102033.63;6016873;28;20078;-65
2022/07/17 04:51:45;;;;;;;4.57;1.10;;;;;;;12.96;74.38;102031.81;6013875;28;20278;-65
2022/07/17 04:54:41;;;;;;;4.43;1.43;;;;;;;13.21;74.05;102045.78;6023468;28;20026;-66
2022/07/17 04:57:36;;;;;;;7.87;1.20;;;;;;;13.75;73.09;102061.50;6017091;28;20281;-66
2022/07/17 05:00:31;;;;;;;3.87;1.23;;;;;;;13.79;71.75;102065.56;6024039;28;20042;-65
2022/07/17 05:03:27;;;;;;;4.00;1.10;;;;;;;14.11;71.53;102077.78;6021185;28;20065;-64
2022/07/17 05:06:22;;;;;;;5.87;1.40;;;;;;;14.34;70.95;102075.78;6025359;28;20278;-65
2022/07/17 05:09:17;;;;;;;3.40;1.40;;;;;;;14.92;68.33;102091.88;6017733;28;20043;-66
2022/07/17 05:12:13;;;;;;;6.90;1.27;;;;;;;14.74;68.48;102094.38;6019158;28;20393;-65
2022/07/17 05:15:08;;;;;;;3.57;1.70;;;;;;;14.92;68.70;102092.69;6029670;28;20293;-67
2022/07/17 05:18:03;;;;;;;5.23;1.67;;;;;;;14.54;69.49;102082.00;6028890;28;20137;-67
2022/07/17 05:20:59;;;;;;;4.70;1.43;;;;;;;15.04;67.22;102077.38;6025363;28;20372;-67
2022/07/17 05:23:54;;;;;;;4.63;2.03;;;;;;;14.97;68.84;102077.13;6021347;28;20289;-66
2022/07/17 05:26:49;;;;;;;3.37;1.23;;;;;;;15.44;67.79;102078.03;6024495;28;20293;-66
2022/07/17 05:29:45;;;;;;;5.68;1.23;;;;;;;15.32;66.79;102068.50;6029005;28;20041;-66
2022/07/17 05:32:40;;;;;;;5.28;1.40;;;;;;;15.41;67.60;102072.97;6013510;28;20057;-65
2022/07/17 05:35:35;;;;;;;4.30;1.60;;;;;;;15.17;67.49;102081.47;6029018;28;20034;-67
2022/07/17 05:38:30;;;;;;;8.30;1.40;;;;;;;15.39;67.98;102074.94;6029018;28;20046;-66
2022/07/17 05:41:26;;;;;;;4.83;1.50;;;;;;;15.05;67.78;102066.56;6027596;28;20035;-65
2022/07/17 05:44:21;;;;;;;6.57;1.67;;;;;;;15.11;68.08;102082.00;6024289;28;20034;-66
2022/07/17 05:47:16;;;;;;;6.97;1.20;;;;;;;15.32;68.04;102068.50;6028961;28;20026;-66
2022/07/17 05:50:12;;;;;;;6.07;1.30;;;;;;;15.28;67.73;102085.81;6025394;28;20030;-65
2022/07/17 05:53:07;;;;;;;6.53;1.77;;;;;;;15.32;68.19;102084.53;6016779;28;20410;-66
2022/07/17 05:56:02;;;;;;;10.10;1.80;;;;;;;15.46;67.81;102076.94;6027342;28;20042;-67
2022/07/17 05:58:58;;;;;;;3.17;1.10;;;;;;;15.41;67.72;102079.16;6017859;28;20030;-66
2022/07/17 06:01:53;;;;;;;5.17;1.13;;;;;;;15.32;67.66;102085.38;6025613;28;20091;-66
2022/07/17 06:04:48;;;;;;;10.03;1.50;;;;;;;15.12;68.21;102064.16;6016824;28;20045;-65
2022/07/17 06:07:44;;;;;;;2.83;1.20;;;;;;;15.12;68.24;102067.69;6027717;28;20034;-66
2022/07/17 06:10:39;;;;;;;4.80;1.20;;;;;;;14.96;68.83;102062.06;6027569;28;20274;-65
2022/07/17 06:13:34;;;;;;;9.45;1.55;;;;;;;15.08;69.02;102065.44;6022235;28;20201;-65
2022/07/17 06:16:30;;;;;;;5.97;1.50;;;;;;;15.30;68.16;102073.97;6028104;28;20042;-66
2022/07/17 06:19:25;;;;;;;3.60;1.40;;;;;;;15.44;67.61;102081.56;6027369;28;20274;-66
2022/07/17 06:22:20;;;;;;;6.07;1.50;;;;;;;15.38;67.98;102087.47;6026000;28;20402;-67
2022/07/17 06:25:16;;;;;;;6.93;1.30;;;;;;;15.71;66.98;102090.69;6026069;28;20026;-67
2022/07/17 06:28:11;;;;;;;5.20;1.20;;;;;;;15.77;66.20;102090.09;6021229;28;20034;-65
2022/07/17 06:31:06;;;;;;;7.35;1.08;;;;;;;16.47;63.37;102084.13;6021602;28;20069;-67
2022/07/17 06:34:02;;;;;;;4.60;1.50;;;;;;;17.19;60.80;102086.69;6023819;28;20045;-66
2022/07/17 06:36:57;;;;;;;3.78;1.30;;;;;;;17.47;59.26;102096.31;6021340;28;20046;-65
2022/07/17 06:39:52;;;;;;;2.55;1.13;;;;;;;17.36;59.39;102099.25;6023696;28;20034;-65
2022/07/17 06:42:48;;;;;;;6.23;1.63;;;;;;;17.01;61.11;102089.38;6013569;28;20045;-66
2022/07/17 06:45:43;;;;;;;5.07;1.00;;;;;;;17.58;58.44;102088.00;6014927;28;20812;-65
2022/07/17 06:48:38;;;;;;;6.00;1.40;;;;;;;17.11;59.08;102079.44;6025816;28;20042;-65
2022/07/17 06:51:34;;;;;;;3.10;1.03;;;;;;;17.40;58.32;102081.81;6024080;28;20041;-66
2022/07/17 06:54:29;;;;;;;4.27;1.50;;;;;;;17.28;58.81;102083.91;6027079;28;20019;-64
2022/07/17 06:57:24;;;;;;;2.53;1.20;;;;;;;17.76;57.44;102096.00;6016892;28;20064;-66
2022/07/17 07:00:20;;;;;;;5.05;1.27;;;;;;;17.84;57.07;102080.81;6025852;28;20281;-66
2022/07/17 07:03:15;;;;;;;9.73;1.33;;;;;;;17.80;56.23;102082.09;6023186;28;20117;-65
2022/07/17 07:06:10;;;;;;;6.53;1.50;;;;;;;18.12;54.78;102080.59;6026768;28;20323;-65
2022/07/17 07:09:06;;;;;;;7.07;1.20;;;;;;;17.89;55.46;102079.47;6024281;28;20049;-66
2022/07/17 07:12:01;;;;;;;6.27;1.80;;;;;;;18.27;53.32;102084.34;6023434;28;20434;-65
2022/07/17 07:14:56;;;;;;;8.63;1.00;;;;;;;17.97;54.60;102082.19;6026230;28;20410;-65
2022/07/17 07:17:52;;;;;;;3.93;1.20;;;;;;;18.72;52.25;102084.84;6025913;28;20140;-67
2022/07/17 07:20:47;;;;;;;4.43;1.15;;;;;;;18.91;52.12;102089.06;6023797;28;20034;-65
2022/07/17 07:23:42;;;;;;;4.33;1.27;;;;;;;19.22;51.65;102083.84;6023480;28;20085;-65
2022/07/17 07:26:38;;;;;;;9.13;1.20;;;;;;;18.70;52.07;102094.03;6022282;28;20278;-65
2022/07/17 07:29:33;;;;;;;7.80;1.40;;;;;;;19.16;51.51;102098.00;6026703;28;20725;-67
2022/07/17 07:32:28;;;;;;;6.83;1.30;;;;;;;19.35;50.35;102098.47;6018256;28;20042;-67
2022/07/17 07:35:24;;;;;;;4.07;1.67;;;;;;;19.12;50.58;102092.09;6025078;28;20026;-66
2022/07/17 07:38:19;;;;;;;2.47;1.02;;;;;;;19.02;51.06;102086.88;6025609;28;20034;-66
2022/07/17 07:41:14;;;;;;;5.97;1.20;;;;;;;19.14;50.65;102092.75;6024978;28;20055;-66
2022/07/17 07:44:09;;;;;;;6.57;1.10;;;;;;;19.18;50.87;102095.97;6024947;28;20034;-66
2022/07/17 07:47:05;;;;;;;10.47;1.20;;;;;;;18.85;51.44;102098.63;6014987;28;20061;-65
2022/07/17 07:50:00;;;;;;;5.67;1.23;;;;;;;18.36;53.02;102094.13;6017137;28;20380;-66
2022/07/17 07:52:56;;;;;;;6.28;1.05;;;;;;;18.45;54.66;102099.34;6021549;28;20038;-66
2022/07/17 07:55:51;;;;;;;6.33;1.43;;;;;;;18.58;52.69;102098.06;6023046;28;20324;-67
2022/07/17 07:58:46;;;;;;;6.00;1.40;;;;;;;19.09;50.88;102095.13;6016169;28;20026;-66
2022/07/17 08:01:41;;;;;;;7.90;1.10;;;;;;;19.41;49.95;102103.22;6014747;28;20038;-63
2022/07/17 08:04:37;;;;;;;6.63;1.27;;;;;;;19.56;50.21;102095.28;6019889;28;20285;-66
2022/07/17 08:07:34;;;;;;;6.00;1.50;;;;;;;19.60;51.34;102093.94;6024465;28;20117;-66
2022/07/17 08:10:29;;;;;;;5.65;1.40;;;;;;;19.85;48.79;102084.78;6024482;28;20042;-66
2022/07/17 08:13:25;;;;;;;3.20;1.33;;;;;;;19.78;49.51;102086.50;6014865;28;20041;-66
2022/07/17 08:16:20;;;;;;;8.10;1.87;;;;;;;20.33;47.35;102085.66;6023844;28;20030;-66
2022/07/17 08:19:15;;;;;;;5.33;1.37;;;;;;;20.37;46.90;102084.28;6025809;28;20556;-65
2022/07/17 08:22:12;;;;;;;3.57;1.20;;;;;;;19.50;50.16;102095.97;6022022;28;20281;-66
2022/07/17 08:25:07;;;;;;;7.20;1.33;;;;;;;19.86;47.86;102099.94;6024941;28;20034;-65
2022/07/17 08:28:03;;;;;;;3.73;1.13;;;;;;;19.76;48.69;102093.91;6022543;28;20162;-66
2022/07/17 08:30:58;;;;;;;3.60;1.38;;;;;;;20.34;47.73;102101.63;6023598;28;20023;-64
2022/07/17 08:33:54;;;;;;;5.83;1.20;;;;;;;19.54;49.12;102108.91;6015761;28;20104;-64
2022/07/17 08:36:50;;;;;;;4.57;1.10;;;;;;;18.91;50.71;102107.88;6024447;28;20750;-66
2022/07/17 08:39:46;;;;;;;2.90;0.93;;;;;;;19.35;50.42;102113.78;6024704;28;20038;-65
2022/07/17 08:42:42;;;;;;;3.57;1.30;;;;;;;19.45;50.35;102115.31;6011386;28;20084;-66
2022/07/17 08:45:39;;;;;;;3.33;1.08;;;;;;;18.91;50.44;102122.19;6016932;28;20037;-65
2022/07/17 08:48:35;;;;;;;6.82;1.10;;;;;;;19.44;49.70;102113.63;6025286;28;20109;-65
2022/07/17 08:51:31;;;;;;;3.40;0.90;;;;;;;20.68;47.60;102110.19;6043128;28;20105;-65
2022/07/17 08:54:26;;;;;;;7.07;1.70;;;;;;;20.79;46.30;102098.16;6020437;28;20435;-65
2022/07/17 08:57:22;;;;;;;3.70;1.00;;;;;;;21.21;44.63;102114.75;6020340;28;20030;-65
2022/07/17 09:00:19;;;;;;;5.13;1.10;;;;;;;21.63;44.23;102110.66;6025730;28;20036;-65
2022/07/17 09:03:15;;;;;;;5.35;1.23;;;;;;;21.17;45.49;102105.34;6025137;28;20057;-65
2022/07/17 09:06:18;;;;;;;3.08;1.60;;;;;;;20.42;47.87;102111.53;6025564;28;20026;-66
2022/07/17 09:09:14;;;;;;;5.85;1.30;;;;;;;19.86;49.00;102102.63;6026296;28;20048;-66
2022/07/17 09:12:09;;;;;;;6.50;1.38;;;;;;;20.86;46.64;102104.53;6019714;28;20034;-65
2022/07/17 09:15:16;;;;;;;4.17;1.23;;;;;;;21.30;44.70;102110.97;6023724;28;20113;-65
2022/07/17 09:18:12;;;;;;;5.72;1.25;;;;;;;21.36;45.79;102106.72;6024660;28;20045;-66
2022/07/17 09:21:17;;;;;;;2.65;0.80;;;;;;;22.06;43.90;102109.88;6027886;28;20101;-65
2022/07/17 09:24:12;;;;;;;6.40;1.58;;;;;;;21.99;43.70;102103.53;6029111;28;20037;-67
2022/07/17 09:27:07;;;;;;;7.57;1.27;;;;;;;22.22;43.68;102100.75;6027202;28;20041;-66
2022/07/17 09:30:06;;;;;;;7.85;1.40;;;;;;;22.48;42.92;102098.34;6026783;28;20369;-65
2022/07/17 09:33:01;;;;;;;6.70;1.05;;;;;;;22.13;43.82;102101.84;6015037;28;20410;-66
2022/07/17 09:36:07;;;;;;;5.97;1.37;;;;;;;22.46;42.32;102097.72;6020909;28;20034;-66
2022/07/17 09:39:02;;;;;;;4.95;1.55;;;;;;;22.84;41.86;102098.38;6022933;28;20042;-65
2022/07/17 09:41:57;;;;;;;4.47;1.10;;;;;;;21.98;43.44;102099.19;6005245;28;20475;-66
2022/07/17 09:45:08;;;;;;;5.87;1.30;;;;;;;21.90;43.47;102094.69;6017730;28;20341;-65
2022/07/17 09:48:04;;;;;;;6.40;1.30;;;;;;;21.92;43.70;102105.31;6025036;28;20034;-65
2022/07/17 09:50:59;;;;;;;4.82;1.00;;;;;;;21.64;44.11;102101.53;6039162;28;20069;-66
2022/07/17 09:53:56;;;;;;;2.20;0.90;;;;;;;21.00;46.24;102111.88;6041846;28;20045;-65
2022/07/17 09:56:57;;;;;;;3.80;1.10;;;;;;;20.96;46.67;102104.28;6019263;28;20544;-65
2022/07/17 09:59:55;;;;;;;5.13;1.13;;;;;;;20.92;45.76;102108.38;6027327;28;20100;-63
2022/07/17 10:02:50;;;;;;;4.85;1.13;;;;;;;21.19;45.26;102103.31;6025842;28;20049;-67
2022/07/17 10:05:46;;;;;;;4.88;1.20;;;;;;;21.32;44.36;102106.22;6038402;28;20026;-65
2022/07/17 10:08:41;;;;;;;10.90;1.80;;;;;;;21.26;44.07;102093.47;6022147;28;20117;-63
2022/07/17 10:11:38;;;;;;;5.20;1.13;;;;;;;21.27;43.64;102113.19;6011074;28;20109;-65
2022/07/17 10:14:34;;;;;;;4.38;1.13;;;;;;;21.64;43.42;102109.63;6041971;28;20117;-65
2022/07/17 10:17:30;;;;;;;5.50;1.10;;;;;;;21.73;42.56;102112.09;6020985;28;20041;-63
2022/07/17 10:20:26;;;;;;;3.20;1.10;;;;;;;21.21;43.93;102109.34;6026759;28;20156;-65
2022/07/17 10:23:21;;;;;;;5.75;1.73;;;;;;;21.37;43.95;102100.28;6016247;28;20084;-64
2022/07/17 10:26:17;;;;;;;2.37;1.03;;;;;;;21.79;42.96;102105.94;6023938;28;20572;-65
2022/07/17 10:29:30;;;;;;;6.82;1.30;;;;;;;21.27;43.80;102103.25;6024267;28;20045;-64
2022/07/17 10:32:25;;;;;;;5.68;1.10;;;;;;;21.79;42.67;102089.75;6022421;28;20026;-64
2022/07/17 10:35:21;;;;;;;4.00;1.10;;;;;;;22.12;43.12;102106.44;6026282;28;20034;-65
2022/07/17 10:38:16;;;;;;;3.15;1.25;;;;;;;21.98;42.16;102099.19;6016570;28;20096;-64
2022/07/17 10:41:19;;;;;;;5.23;1.47;;;;;;;22.02;42.43;102100.47;6021214;28;20057;-64
2022/07/17 10:44:26;;;;;;;4.65;1.30;;;;;;;22.13;41.44;102091.88;6026968;28;20034;-64
2022/07/17 10:47:22;;;;;;;3.55;1.00;;;;;;;22.21;41.20;102097.19;6015218;28;20109;-63
2022/07/17 10:50:20;;;;;;;4.30;1.17;;;;;;;22.30;41.03;102090.66;6025396;28;20500;-65
2022/07/17 10:53:25;;;;;;;4.00;1.17;;;;;;;22.45;40.31;102096.03;6012647;28;20042;-63
2022/07/17 10:56:21;;;;;;;5.95;0.95;;;;;;;22.53;40.35;102096.75;6017791;28;20383;-65
2022/07/17 10:59:17;;;;;;;5.93;1.17;;;;;;;22.70;39.77;102099.25;6021733;28;20034;-64
2022/07/17 11:02:14;;;;;;;4.57;1.02;;;;;;;22.56;40.74;102092.00;6024356;28;20034;-63
2022/07/17 11:05:11;;;;;;;4.47;0.93;;;;;;;22.47;41.66;102083.19;6025628;28;20109;-65
2022/07/17 11:08:09;;;;;;;4.70;1.30;;;;;;;22.40;40.38;102077.69;6026418;28;20466;-65
2022/07/17 11:11:04;;;;;;;5.85;1.40;;;;;;;22.67;39.78;102078.00;6024871;28;20042;-64
2022/07/17 11:14:18;;;;;;;3.60;1.40;;;;;;;23.00;40.09;102069.19;6026648;28;20375;-64
2022/07/17 11:17:18;;;;;;;5.05;1.45;;;;;;;22.84;39.78;102065.91;6018197;28;20035;-67
2022/07/17 11:20:15;;;;;;;5.03;1.33;;;;;;;23.04;39.70;102059.66;6012192;28;20061;-64
2022/07/17 11:23:10;;;;;;;3.83;1.02;;;;;;;23.28;39.78;102071.09;6025870;28;20038;-63
2022/07/17 11:26:06;;;;;;;3.95;0.95;;;;;;;22.94;38.20;102061.00;6024499;28;20037;-65
2022/07/17 11:29:02;;;;;;;4.45;1.20;;;;;;;23.13;38.85;102067.66;6021564;28;20034;-66
2022/07/17 11:31:57;;;;;;;4.35;1.13;;;;;;;23.16;38.71;102051.84;6021284;28;20092;-65
2022/07/17 11:34:53;;;;;;;5.80;1.17;;;;;;;23.58;38.94;102050.94;6025313;28;20034;-64
2022/07/17 11:37:49;;;;;;;4.03;1.00;;;;;;;23.42;38.92;102073.75;6023869;28;20038;-65
2022/07/17 11:40:46;;;;;;;6.97;1.33;;;;;;;23.61;36.75;102064.94;6023856;28;20046;-66
2022/07/17 11:43:41;;;;;;;3.63;1.30;;;;;;;23.60;38.69;102063.25;6026053;28;20034;-66
2022/07/17 11:46:38;;;;;;;5.53;1.30;;;;;;;23.41;38.82;102072.06;6023250;28;20045;-65
2022/07/17 11:49:35;;;;;;;3.20;1.08;;;;;;;23.35;39.25;102056.56;6040909;28;20042;-64
2022/07/17 11:52:40;;;;;;;8.23;1.38;;;;;;;23.66;39.35;102048.06;6023709;28;20030;-64
2022/07/17 11:55:39;;;;;;;2.17;1.08;;;;;;;23.87;37.06;102044.41;6024061;28;20030;-66
2022/07/17 11:58:45;;;;;;;5.13;1.38;;;;;;;23.89;36.06;102050.50;6015693;28;20042;-64
2022/07/17 12:01:43;;;;;;;3.88;1.05;;;;;;;23.86;35.80;102048.19;6021657;28;20026;-64
2022/07/17 12:04:52;;;;;;;3.25;0.90;;;;;;;23.87;34.49;102055.25;6013468;28;20035;-65
2022/07/17 12:07:47;;;;;;;4.18;1.08;;;;;;;23.42;36.33;102041.25;6017325;28;20133;-66
2022/07/17 12:10:43;;;;;;;2.47;0.95;;;;;;;23.92;35.13;102044.66;6023857;28;20065;-65
2022/07/17 12:13:43;;;;;;;6.07;1.20;;;;;;;24.22;35.43;102046.06;6025293;28;20034;-65
2022/07/17 12:16:39;;;;;;;2.47;1.10;;;;;;;24.16;35.48;102047.72;6019587;28;20183;-66
2022/07/17 12:19:34;;;;;;;4.03;1.27;;;;;;;23.83;34.66;102037.75;6026594;28;20382;-64
2022/07/17 12:22:31;;;;;;;5.30;1.17;;;;;;;24.01;36.04;102051.59;6024558;28;20046;-67
2022/07/17 12:25:28;;;;;;;3.83;1.23;;;;;;;24.43;34.26;102040.53;6029478;28;20058;-65
2022/07/17 12:28:23;;;;;;;9.20;1.55;;;;;;;24.23;34.76;102028.78;6027857;28;20038;-65
2022/07/17 12:31:20;;;;;;;2.20;0.97;;;;;;;24.38;33.96;102026.72;6028620;28;20441;-65
2022/07/17 12:34:15;;;;;;;4.10;1.00;;;;;;;24.38;33.85;102026.72;6020686;28;20602;-66
2022/07/17 12:37:11;;;;;;;6.43;1.20;;;;;;;24.81;32.96;102025.38;6025464;28;20066;-66
2022/07/17 12:40:08;;;;;;;4.63;1.15;;;;;;;24.80;34.70;102021.00;6028768;28;20618;-65
2022/07/17 12:43:03;;;;;;;6.05;1.08;;;;;;;25.09;33.04;102025.19;6016858;28;20598;-66
2022/07/17 12:45:59;;;;;;;2.20;1.17;;;;;;;24.98;30.37;102014.94;6024379;28;20046;-65
2022/07/17 12:48:54;;;;;;;3.80;1.37;;;;;;;24.69;30.74;102024.31;6020991;28;20026;-66
2022/07/17 12:51:49;;;;;;;3.93;1.20;;;;;;;24.28;31.28;102020.88;6028569;28;20150;-65
2022/07/17 12:54:44;;;;;;;5.73;1.00;;;;;;;24.38;30.59;102004.22;6028076;28;20034;-65
2022/07/17 12:57:40;;;;;;;4.80;0.97;;;;;;;24.87;31.49;102003.91;6020310;28;20410;-64
2022/07/17 13:00:35;;;;;;;4.43;1.13;;;;;;;25.28;30.21;102002.59;6009183;28;20030;-65
2022/07/17 13:03:31;;;;;;;2.83;1.03;;;;;;;24.78;31.57;102017.66;6028845;28;20034;-64
2022/07/17 13:06:26;;;;;;;3.33;1.13;;;;;;;25.02;31.69;101996.38;6025917;28;20068;-64
2022/07/17 13:09:22;;;;;;;7.88;1.30;;;;;;;24.87;29.31;101991.13;6019829;28;20038;-65
2022/07/17 13:12:17;;;;;;;5.25;1.00;;;;;;;25.11;28.43;101985.06;6023645;28;20030;-65
2022/07/17 13:15:13;;;;;;;4.10;1.20;;;;;;;25.41;29.32;101996.34;6028970;28;20031;-65
2022/07/17 13:18:08;;;;;;;6.37;1.50;;;;;;;25.50;30.02;101992.34;6024377;28;20046;-65
2022/07/17 13:21:06;;;;;;;5.55;1.80;;;;;;;25.72;28.90;101993.75;6043423;28;20144;-66
2022/07/17 13:24:01;;;;;;;2.92;1.50;;;;;;;25.65;30.52;101990.25;6029381;28;20430;-66
2022/07/17 13:26:57;;;;;;;3.47;1.20;;;;;;;25.67;30.40;101995.44;6027564;28;20113;-65
2022/07/17 13:29:52;;;;;;;3.05;1.13;;;;;;;26.01;29.78;101986.94;6028507;28;20045;-66
2022/07/17 13:32:48;;;;;;;3.40;1.13;;;;;;;25.52;29.91;101982.09;6018806;28;20043;-65
2022/07/17 13:35:43;;;;;;;9.20;1.47;;;;;;;25.70;29.03;101995.03;6027953;28;20292;-65
2022/07/17 13:38:38;;;;;;;3.90;1.20;;;;;;;25.87;29.27;101997.03;6026975;28;20041;-64
2022/07/17 13:41:34;;;;;;;4.67;1.20;;;;;;;25.90;28.19;101985.72;6027186;28;20026;-64